Reklama

Seznam meteostanic a jejich METAR

Vyhledat místa podle abecedy:
A B C D E F G H I J K L M N O P Q R S T U V W X Y Z

Filtrovat:

ID stanice:
a/nebo
Název místa (fulltext):
 
Místo (ID)Naposledy načteno 
Pardubice (Pardubice) 31.05.2020 03:00 UTC Zobrazit data
Místo: Pardubice
Teplota: 8 °C (pocitová: 3.3 °C)
Vítr: 3 m/s z(e) 270°
Počasí: zataženo
Dohlednost: 20 km
Zákl. oblačnosti: 4/8 2700 m;8/8 3000 m
Vlhkost: 82%
Pec pod Sněžkou (Pec p.Snez) 31.05.2020 03:00 UTC Zobrazit data
Místo: Pec pod Sněžkou
Teplota: 7 °C (pocitová: 3.1 °C)
Vítr: 2 m/s z(e) 0°
Počasí: zataženo
Dohlednost: 35 km
Zákl. oblačnosti: 1/8 1050 m;8/8 2100 m
Vlhkost: 71%
Plzeň město - Mikulka (Plzen/Miku) 31.05.2020 03:00 UTC Zobrazit data
Místo: Plzeň město - Mikulka
Teplota: 5 °C (pocitová: 0.5 °C)
Vítr: 2 m/s z(e) 200°
Počasí:
Dohlednost: 30 km
Zákl. oblačnosti: N/A
Vlhkost: 87%
Polom (Polom) 31.05.2020 03:00 UTC Zobrazit data
Místo: Polom
Teplota: 6 °C (pocitová: 0.7 °C)
Vítr: 3 m/s z(e) 350°
Počasí: déšť
Dohlednost: 30 km
Zákl. oblačnosti: 8/8 1230 m
Vlhkost: 93%
Praha - Karlov (Praha/Kar) 31.05.2020 03:00 UTC Zobrazit data
Místo: Praha - Karlov
Teplota: 11 °C (pocitová: 7.3 °C)
Vítr: 3 m/s z(e) 310°
Počasí: zataženo
Dohlednost: 35 km
Zákl. oblačnosti: 6/8 4800 m;7/8 5400 m
Vlhkost: 62%
Praha - Kbely (Praha/Kbe) 31.05.2020 03:00 UTC Zobrazit data
Místo: Praha - Kbely
Teplota: 9 °C (pocitová: 4.7 °C)
Vítr: 3 m/s z(e) 290°
Počasí: skoro zataženo
Dohlednost: 20 km
Zákl. oblačnosti: 7/8 4500 m
Vlhkost: 71%
Praha - Libuš (Praha/Lib) 31.05.2020 03:00 UTC Zobrazit data
Místo: Praha - Libuš
Teplota: 7 °C (pocitová: 4.3 °C)
Vítr: 1 m/s z(e) 0°
Počasí: skoro zataženo
Dohlednost: 35 km
Zákl. oblačnosti: 1/8 3900 m;6/8 5400 m
Vlhkost: 81%
Praha - Ruzyně (Praha/Ru) 31.05.2020 03:00 UTC Zobrazit data
Místo: Praha - Ruzyně
Teplota: 8 °C (pocitová: 3.3 °C)
Vítr: 3 m/s z(e) 300°
Počasí: zataženo
Dohlednost: 60 km
Zákl. oblačnosti: 3/8 3900 m;8/8 6900 m
Vlhkost: 76%
Přibyslav (Pribyslav) 31.05.2020 03:00 UTC Zobrazit data
Místo: Přibyslav
Teplota: 6 °C (pocitová: 1.8 °C)
Vítr: 2 m/s z(e) 310°
Počasí: zataženo
Dohlednost: 35 km
Zákl. oblačnosti: 8/8 2700 m
Vlhkost: 87%
Přimda (Primda) 31.05.2020 03:00 UTC Zobrazit data
Místo: Přimda
Teplota: 7 °C (pocitová: 3.1 °C)
Vítr: 2 m/s z(e) 10°
Počasí: skoro zataženo
Dohlednost: 35 km
Zákl. oblačnosti: 7/8 7200 m
Vlhkost: 66%
Pago Pago (NSTU) 31.05.2020 03:50 UTC Zobrazit METAR
NSTU 310350Z 10020KT 12SM SCT018 29/25 A2993 RMK SLP137 T02930250
Palanga (EYPA) 30.05.2020 21:50 UTC Zobrazit METAR
EYPA 302150Z AUTO 02012KT 6000 BKN230/// 14/04 Q1019
Palermo (LICJ) 31.05.2020 03:50 UTC Zobrazit METAR
LICJ 310350Z AUTO 16003KT 9999 FEW060/// BKN077/// BKN100/// 17/14 Q1014
Palma de Mallorca (LEPA) 31.05.2020 04:00 UTC Zobrazit METAR
LEPA 310400Z 00000KT CAVOK 14/13 Q1015 NOSIG
Panama City (MPTO) 31.05.2020 04:00 UTC Zobrazit METAR
MPTO 310400Z AUTO VRB02KT 9999 FEW005/// SCT006/// BKN008/// 25/24 Q1012
Paramaribo (SMZO) 31.05.2020 00:00 UTC Zobrazit METAR
SMZO 310000Z 04007KT 9999 SCT015 27/24 Q1013 NOSIG
Paris (LFPG) 31.05.2020 04:00 UTC Zobrazit METAR
LFPG 310400Z AUTO 07008KT CAVOK 13/05 Q1019 NOSIG
Paro (VQPR) 31.05.2020 04:00 UTC Zobrazit METAR
VQPR 310400Z 33005KT 9999 FEW020 SCT050 BKN070 19/10 Q1023
Phnom Penh (VDPP) 30.05.2020 23:00 UTC Zobrazit METAR
VDPP 302300Z 14002KT 9000 SCT015 SCT040 28/25 Q1010
Plovdiv (LBPD) 31.05.2020 04:00 UTC Zobrazit METAR
LBPD 310400Z AUTO 16004KT 140V200 9999 FEW071 14/09 Q1013 NOSIG
Pohnpei I (PTPN) 30.05.2020 02:50 UTC Zobrazit METAR
PTPN 300250Z 11007KT 15SM SCT018 BKN130 OVC300 31/25 A2989
Ponta Delgada (LPPD) 31.05.2020 04:00 UTC Zobrazit METAR
LPPD 310400Z 30008KT 9999 FEW005 SCT010 18/17 Q1013
Pori (EFPO) 31.05.2020 03:50 UTC Zobrazit METAR
EFPO 310350Z AUTO 04005KT CAVOK 11/03 Q1031
Port Moresby (AYPY) 31.05.2020 03:00 UTC Zobrazit METAR
AYPY 310300Z 16017KT 9999 SCT025 SCT035 31/26 Q1012=
Port of Spain (TTPP) 31.05.2020 04:00 UTC Zobrazit METAR
TTPP 310400Z 09005KT 9999 FEW016 26/24 Q1014 NOSIG
Port Vila (NVVV) 31.05.2020 04:00 UTC Zobrazit METAR
NVVV 310400Z 09005KT 9999 FEW025 29/22 Q1013
Port-au-Prince (MTPP) 31.05.2020 03:59 UTC Zobrazit METAR
MTPP 310359Z AUTO 11010KT 9000 ////// 27/23 Q1016 A3000 NOSIG
Porto (LPPR) 31.05.2020 04:00 UTC Zobrazit METAR
LPPR 310400Z 35003KT 8000 OVC005 16/15 Q1011
Poznan (EPPO) 31.05.2020 04:00 UTC Zobrazit METAR
EPPO 310400Z 33009KT 9999 -RA NSC 09/08 Q1017
Prague (LKPR) 31.05.2020 04:00 UTC Zobrazit METAR
LKPR 310400Z 32006KT CAVOK 08/04 Q1019 NOSIG
Praia (GVFM) Zatím nenačteno  
Pyongyang (ZKPY) Zatím nenačteno  
Reklama

Lunární kalendář

  • 05.06.Fáze měsíce uplnek
  • 13.06.Fáze měsíce posl_ctvrt
  • 21.06.Fáze měsíce nov
  • 28.06.Fáze měsíce prv_ctvrt



Reklama
Meteodomečky

Počasí na Váš email

Emaily jsou bez reklamy a bez spamu



Odhlásit newsletter

Reklama


Další české internetové stránky (nejen) o počasí najdete v katalogu TOPlist - weby o počasí nebo vyhledejte na internetu, co jste tu na 🌞 Slunečnu ⛅ zatím nenašli:

Reklama